Shorewood, Wisconsin
Current Conditions -  °F | °C
As of 7:45 AM on Tuesday 27 Jan 2015 (Local Time) from KMWC Reporting Station
Overcast Overcast  
Wind Chill: 19°   Ceiling: 1900
Heat Index: 27°   Visibility: 10mi
Dew Point: 19°   Wind: 7mph
Humidity: 74%   Direction: 40°NE
Pressure: 30.12"   Gusts: NA
Location:  43.0828°N, 87.8841°W
Report Text: KMWC 271345Z AUTO 04006KT 10SM OVC019 M03/M07 A3012
Loading
Personal Weather Stations






























Interactive Weather Map New forecast layout! Learn more

10-Day Weather Forecast

Advertisements
Track Severe Weather on mobile